Donna York — WDE8199 — position and weather

sailwx.info

Track history (hours):
 
Tides and Currents Weather Stations Pressure Air Temp Water Temp Dewpoint Dewpoint Depression Visibility Wind Speed Wind Dir Waves Ship Positions

Donna York

Owner: Crounse Corporation, Maysville, KY. More information available from US FCC via Universal Licensing System and Coast Guard Vessel Documentation Center.

Last reported at 2015-Dec-14 19:04 UTC. Time now 2016-Feb-13 08:57 UTC.
Position N 39°04' W 084°53'.
Warning: this ship's position is months out of date.

Length 34 m.

Type: Towing. MMSI: 367402680.

Date/timePositionNaut miles runAvg speedWind from/ knotsBaromVisibWave heightAir tempDewpointWater temp
2015-Dec-14 19:04N 39°04' W 084°53'3 4.2
2015-Dec-14 18:22N 39°06' W 084°50'3 4.0
2015-Dec-14 17:33N 39°07' W 084°47'3 3.0
2015-Dec-14 16:33N 39°08' W 084°43'4 3.9
2015-Dec-14 15:33N 39°05' W 084°39'4 3.7
2015-Dec-14 14:33N 39°05' W 084°34'2 1.5
2015-Dec-14 13:33N 39°06' W 084°33'3 2.6
2015-Dec-14 12:33N 39°06' W 084°30'3 2.9
2015-Dec-14 11:33N 39°05' W 084°26'3 3.4
2015-Dec-14 10:33N 39°03' W 084°23'4 3.9
2015-Dec-14 09:33N 39°01' W 084°19'4 4.1
2015-Dec-14 08:33N 38°57' W 084°17'4 4.4
2015-Dec-14 07:33N 38°53' W 084°14'5 4.4
2015-Dec-14 06:32N 38°49' W 084°13'3 2.6
2015-Dec-14 05:32N 38°48' W 084°10'1 0.9
2015-Dec-14 04:27N 38°48' W 084°09'3 2.8
2015-Dec-14 03:18N 38°46' W 084°05'8 0.3
2015-Dec-12 20:16N 38°46' W 083°55'6 3.3
2015-Dec-12 18:26N 38°46' W 084°02'4 4.2
2015-Dec-12 17:33N 38°47' W 084°07'3 2.5
2015-Dec-12 16:25N 38°48' W 084°11'3 3.0
2015-Dec-12 15:33N 38°49' W 084°14'3 3.5
2015-Dec-12 14:33N 38°52' W 084°14'4 3.3
2015-Dec-12 13:30N 38°56' W 084°16'3 3.5
2015-Dec-12 12:33N 38°58' W 084°18'3 3.2
2015-Dec-12 11:33N 39°01' W 084°19'3 3.2
2015-Dec-12 10:33N 39°03' W 084°23'3 2.8
2015-Dec-12 09:33N 39°04' W 084°26'3 3.0
2015-Dec-12 08:33N 39°07' W 084°28'3 3.3
2015-Dec-12 07:33N 39°05' W 084°31'1 1.0
2015-Dec-12 06:32N 39°06' W 084°32'3 3.4
2015-Dec-12 05:33N 39°04' W 084°36'3 3.3
2015-Dec-12 04:33N 39°06' W 084°40'4 3.7
2015-Dec-12 03:33N 39°08' W 084°44'3 3.1
2015-Dec-12 02:33N 39°07' W 084°47'6 0.2
2015-Dec-10 23:18N 39°04' W 084°53'4 4.5
2015-Dec-10 22:24N 39°06' W 084°49'1 1.1
2015-Dec-10 21:28N 39°07' W 084°48'0 0.3
2015-Dec-10 20:03N 39°07' W 084°48'0 1.0
2015-Dec-10 19:33N 39°07' W 084°48'0 0.1
2015-Dec-10 18:32N 39°07' W 084°48'3 3.2
2015-Dec-10 17:33N 39°09' W 084°45'4 4.2
2015-Dec-10 16:33N 39°06' W 084°41'4 4.0
2015-Dec-10 15:33N 39°04' W 084°36'4 3.5
2015-Dec-10 14:32N 39°05' W 084°32'3 2.6
2015-Dec-10 13:33N 39°07' W 084°29'3 3.2
2015-Dec-10 12:33N 39°05' W 084°26'4 4.0
2015-Dec-10 11:32N 39°02' W 084°22'4 4.4
2015-Dec-10 10:32N 38°59' W 084°18'5 4.6
2015-Dec-10 09:33N 38°55' W 084°15'4 4.3
2015-Dec-10 08:32N 38°51' W 084°14'4 2.9
2015-Dec-10 07:04N 38°48' W 084°10'0 0.5
2015-Dec-10 06:33N 38°48' W 084°10'3 3.2
2015-Dec-10 05:30N 38°47' W 084°06'21 0.8
2015-Dec-09 04:32N 38°38' W 083°42'0 0.0
2015-Dec-09 03:31N 38°38' W 083°42'0 0.0
2015-Dec-09 02:33N 38°38' W 083°42'0 0.0
2015-Dec-08 12:30N 38°38' W 083°42'0 0.0
2015-Dec-08 10:33N 38°38' W 083°42'0 0.0
2015-Dec-08 09:33N 38°38' W 083°42'0 0.0
2015-Dec-08 08:33N 38°38' W 083°42'0 0.0
2015-Dec-06 16:29N 38°38' W 083°42'0 0.0
2015-Dec-06 15:32N 38°38' W 083°42'0 0.0
2015-Dec-06 14:32N 38°38' W 083°42'0 0.0
2015-Dec-06 13:26N 38°38' W 083°42'0 0.0
2015-Dec-06 12:32N 38°38' W 083°42'0 0.0
2015-Dec-06 11:32N 38°38' W 083°42'0 0.0
2015-Dec-06 10:33N 38°38' W 083°42'0 0.0
2015-Dec-06 09:33N 38°38' W 083°42'0 0.0
2015-Dec-06 08:32N 38°38' W 083°42'0 0.0
2015-Dec-06 07:32N 38°38' W 083°42'0 0.0
2015-Dec-06 06:31N 38°38' W 083°42'0 0.0
2015-Dec-06 05:33N 38°38' W 083°42'0 0.0
2015-Dec-06 04:27N 38°38' W 083°42'0 0.0
2015-Dec-06 01:28N 38°38' W 083°42'0 0.0
2015-Dec-06 00:32N 38°38' W 083°42'0 0.0
2015-Dec-05 23:32N 38°38' W 083°42'0 0.0
2015-Dec-05 22:27N 38°38' W 083°42'0 0.0
2015-Dec-05 12:23N 38°38' W 083°42'0 0.0
2015-Dec-05 11:32N 38°38' W 083°42'0 0.0
2015-Dec-05 10:32N 38°38' W 083°42'0 0.0
2015-Dec-05 09:24N 38°38' W 083°42'0 0.0
2015-Dec-05 08:33N 38°38' W 083°42'0 0.0
2015-Dec-05 07:30N 38°38' W 083°42'0 0.0
2015-Dec-05 06:30N 38°38' W 083°42'  
Track history (hours):
 
Tides and Currents Weather Stations Pressure Air Temp Water Temp Dewpoint Dewpoint Depression Visibility Wind Speed Wind Dir Waves Ship Positions

Donna York

Owner: Crounse Corporation, Maysville, KY. More information available from US FCC via Universal Licensing System and Coast Guard Vessel Documentation Center.

Last reported at 2015-Dec-14 19:04 UTC. Time now 2016-Feb-13 08:57 UTC.
Position N 39°04' W 084°53'.
Warning: this ship's position is months out of date.

Length 34 m.

Type: Towing. MMSI: 367402680.

Date/timePositionNaut miles runAvg speedWind from/ knotsBaromVisibWave heightAir tempDewpointWater temp
2015-Dec-14 19:04N 39°04' W 084°53'3 4.2
2015-Dec-14 18:22N 39°06' W 084°50'3 4.0
2015-Dec-14 17:33N 39°07' W 084°47'3 3.0
2015-Dec-14 16:33N 39°08' W 084°43'4 3.9
2015-Dec-14 15:33N 39°05' W 084°39'4 3.7
2015-Dec-14 14:33N 39°05' W 084°34'2 1.5
2015-Dec-14 13:33N 39°06' W 084°33'3 2.6
2015-Dec-14 12:33N 39°06' W 084°30'3 2.9
2015-Dec-14 11:33N 39°05' W 084°26'3 3.4
2015-Dec-14 10:33N 39°03' W 084°23'4 3.9
2015-Dec-14 09:33N 39°01' W 084°19'4 4.1
2015-Dec-14 08:33N 38°57' W 084°17'4 4.4
2015-Dec-14 07:33N 38°53' W 084°14'5 4.4
2015-Dec-14 06:32N 38°49' W 084°13'3 2.6
2015-Dec-14 05:32N 38°48' W 084°10'1 0.9
2015-Dec-14 04:27N 38°48' W 084°09'3 2.8
2015-Dec-14 03:18N 38°46' W 084°05'8 0.3
2015-Dec-12 20:16N 38°46' W 083°55'6 3.3
2015-Dec-12 18:26N 38°46' W 084°02'4 4.2
2015-Dec-12 17:33N 38°47' W 084°07'3 2.5
2015-Dec-12 16:25N 38°48' W 084°11'3 3.0
2015-Dec-12 15:33N 38°49' W 084°14'3 3.5
2015-Dec-12 14:33N 38°52' W 084°14'4 3.3
2015-Dec-12 13:30N 38°56' W 084°16'3 3.5
2015-Dec-12 12:33N 38°58' W 084°18'3 3.2
2015-Dec-12 11:33N 39°01' W 084°19'3 3.2
2015-Dec-12 10:33N 39°03' W 084°23'3 2.8
2015-Dec-12 09:33N 39°04' W 084°26'3 3.0
2015-Dec-12 08:33N 39°07' W 084°28'3 3.3
2015-Dec-12 07:33N 39°05' W 084°31'1 1.0
2015-Dec-12 06:32N 39°06' W 084°32'3 3.4
2015-Dec-12 05:33N 39°04' W 084°36'3 3.3
2015-Dec-12 04:33N 39°06' W 084°40'4 3.7
2015-Dec-12 03:33N 39°08' W 084°44'3 3.1
2015-Dec-12 02:33N 39°07' W 084°47'6 0.2
2015-Dec-10 23:18N 39°04' W 084°53'4 4.5
2015-Dec-10 22:24N 39°06' W 084°49'1 1.1
2015-Dec-10 21:28N 39°07' W 084°48'0 0.3
2015-Dec-10 20:03N 39°07' W 084°48'0 1.0
2015-Dec-10 19:33N 39°07' W 084°48'0 0.1
2015-Dec-10 18:32N 39°07' W 084°48'3 3.2
2015-Dec-10 17:33N 39°09' W 084°45'4 4.2
2015-Dec-10 16:33N 39°06' W 084°41'4 4.0
2015-Dec-10 15:33N 39°04' W 084°36'4 3.5
2015-Dec-10 14:32N 39°05' W 084°32'3 2.6
2015-Dec-10 13:33N 39°07' W 084°29'3 3.2
2015-Dec-10 12:33N 39°05' W 084°26'4 4.0
2015-Dec-10 11:32N 39°02' W 084°22'4 4.4
2015-Dec-10 10:32N 38°59' W 084°18'5 4.6
2015-Dec-10 09:33N 38°55' W 084°15'4 4.3
2015-Dec-10 08:32N 38°51' W 084°14'4 2.9
2015-Dec-10 07:04N 38°48' W 084°10'0 0.5
2015-Dec-10 06:33N 38°48' W 084°10'3 3.2
2015-Dec-10 05:30N 38°47' W 084°06'21 0.8
2015-Dec-09 04:32N 38°38' W 083°42'0 0.0
2015-Dec-09 03:31N 38°38' W 083°42'0 0.0
2015-Dec-09 02:33N 38°38' W 083°42'0 0.0
2015-Dec-08 12:30N 38°38' W 083°42'0 0.0
2015-Dec-08 10:33N 38°38' W 083°42'0 0.0
2015-Dec-08 09:33N 38°38' W 083°42'0 0.0
2015-Dec-08 08:33N 38°38' W 083°42'0 0.0
2015-Dec-06 16:29N 38°38' W 083°42'0 0.0
2015-Dec-06 15:32N 38°38' W 083°42'0 0.0
2015-Dec-06 14:32N 38°38' W 083°42'0 0.0
2015-Dec-06 13:26N 38°38' W 083°42'0 0.0
2015-Dec-06 12:32N 38°38' W 083°42'0 0.0
2015-Dec-06 11:32N 38°38' W 083°42'0 0.0
2015-Dec-06 10:33N 38°38' W 083°42'0 0.0
2015-Dec-06 09:33N 38°38' W 083°42'0 0.0
2015-Dec-06 08:32N 38°38' W 083°42'0 0.0
2015-Dec-06 07:32N 38°38' W 083°42'0 0.0
2015-Dec-06 06:31N 38°38' W 083°42'0 0.0
2015-Dec-06 05:33N 38°38' W 083°42'0 0.0
2015-Dec-06 04:27N 38°38' W 083°42'0 0.0
2015-Dec-06 01:28N 38°38' W 083°42'0 0.0
2015-Dec-06 00:32N 38°38' W 083°42'0 0.0
2015-Dec-05 23:32N 38°38' W 083°42'0 0.0
2015-Dec-05 22:27N 38°38' W 083°42'0 0.0
2015-Dec-05 12:23N 38°38' W 083°42'0 0.0
2015-Dec-05 11:32N 38°38' W 083°42'0 0.0
2015-Dec-05 10:32N 38°38' W 083°42'0 0.0
2015-Dec-05 09:24N 38°38' W 083°42'0 0.0
2015-Dec-05 08:33N 38°38' W 083°42'0 0.0
2015-Dec-05 07:30N 38°38' W 083°42'0 0.0
2015-Dec-05 06:30N 38°38' W 083°42'  

Dump ship's entire track history